• Join FlightAware (Why Join?)
  • Login
  • US Flag 
09:17AM EDT


 

Airport Tracker/Info


-or-


 

Live Flight TrackerFlight Track Log ✈ SWA796 ✈ 27-Apr-2013 ✈ KCMH - KPHX

Flight Track Log - Related Links

Times and Time Zones

All times are in EDT time to prevent confusion due to time zone crossing. See the SWA796 flight status page for this flight to view local times or setup timezone preferences in your user account.

Time Position Orientation Groundspeed Altitude Reporting Facility
EDT Latitude Longitude Course Direction KTS MPH feet Rate Location/Type
11:54AM 39.9922 -82.8139 90° East 201 231 2,900  Level Indianapolis Center
11:55AM 39.9925 -82.7989 89° East 203 234 3,500 2,040 Climbing Indianapolis Center
11:56AM 40.0456 -82.7667 25° Northeast 258 297 5,700 2,460 Climbing Indianapolis Center
11:57AM 40.0611 -82.8628 282° West 283 326 8,600 2,460 Climbing Indianapolis Center
11:58AM 40.0564 -82.9711 267° West 295 339 10,800 2,400 Climbing Indianapolis Center
11:59AM 40.0492 -83.1153 266° West 338 389 13,600 2,340 Climbing Indianapolis Center
12:00PM 40.0417 -83.2456 266° West 358 412 15,600 1,980 Climbing Indianapolis Center
12:01PM 40.0333 -83.3794 265° West 368 423 17,700 1,740 Climbing Indianapolis Center
12:02PM 40.0247 -83.5167 265° West 380 437 19,200 1,560 Climbing Indianapolis Center
12:03PM 40.0158 -83.6578 265° West 390 449 20,900 1,560 Climbing Indianapolis Center
12:04PM 40.0072 -83.8033 266° West 399 459 22,400 1,620 Climbing Indianapolis Center
12:05PM 39.9975 -83.9519 265° West 408 470 24,200 1,440 Climbing Indianapolis Center
12:06PM 39.9872 -84.1000 265° West 409 471 25,400 780 Climbing Indianapolis Center
12:07PM 39.9778 -84.2531 265° West 417 480 25,900 240 Climbing Indianapolis Center
12:08PM 39.9661 -84.4281 265° West 414 476 25,900 -300 Level Indianapolis Center
12:09PM 39.9550 -84.5761 264° West 411 473 25,400 -840 Descending Indianapolis Center
12:10PM 39.9453 -84.7150 265° West 392 451 24,200 -1,080 Descending Indianapolis Center
12:11PM 39.9344 -84.8492 264° West 373 429 23,300 -840 Descending Indianapolis Center
12:12PM 39.9256 -84.9800 265° West 365 420 22,500 -660 Descending Indianapolis Center
12:13PM 39.9156 -85.1128 264° West 367 422 22,000 -300 Descending Indianapolis Center
12:14PM 39.9053 -85.2503 264° West 379 436 21,900 -60 Descending Indianapolis Center
12:15PM 39.8947 -85.3947 265° West 396 456 21,900  Level Indianapolis Center
12:16PM 39.8831 -85.5400 264° West 400 460 21,900  Level Indianapolis Center
12:17PM 39.8711 -85.6869 264° West 406 467 21,900  Level Indianapolis Center
12:18PM 39.8600 -85.8342 264° West 407 468 21,900  Level Indianapolis Center
12:19PM 39.8469 -85.9819 263° West 410 472 21,900  Level Indianapolis Center
12:20PM 39.8328 -86.1542 264° West 411 473 21,900  Level Indianapolis Center
12:21PM 39.8211 -86.2956 264° West 404 465 21,900 540 Level Indianapolis Center
12:22PM 39.8008 -86.4333 259° West 399 459 23,000 1,380 Climbing Indianapolis Center
12:23PM 39.7711 -86.5739 255° West 403 464 24,800 1,380 Climbing Indianapolis Center
12:24PM 39.7417 -86.7108 254° West 393 452 25,900 540 Climbing Indianapolis Center
12:25PM 39.7119 -86.8478 254° West 392 451 25,900  Level Indianapolis Center
12:26PM 39.6828 -86.9831 254° West 390 449 25,900  Level Indianapolis Center
12:27PM 39.6483 -87.1414 254° West 388 447 25,900  Level Indianapolis Center
12:28PM 39.6175 -87.2778 254° West 392 451 25,900  Level Indianapolis Center
12:29PM 39.5878 -87.4156 254° West 394 453 25,900  Level Indianapolis Center
12:31PM 39.5569 -87.5519 254° West 393 452 25,900 180 Level Indianapolis Center
12:32PM 39.5264 -87.6894 254° West 394 453 26,300 720 Climbing Indianapolis Center
12:33PM 39.4958 -87.8256 254° West 392 451 27,400 1,260 Climbing Indianapolis Center
12:33PM 39.4817 -87.8903 254° West 388 447 28,300 1,440 Climbing Kansas City Center
12:34PM 39.4519 -88.0242 254° West 388 447 29,700 1,140 Climbing Kansas City Center
12:35PM 39.4217 -88.1556 253° West 384 442 30,700 1,140 Climbing Kansas City Center
12:36PM 39.3847 -88.3133 253° West 383 441 32,100 1,260 Climbing Kansas City Center
12:37PM 39.3539 -88.4442 253° West 381 438 33,300 900 Climbing Kansas City Center
12:38PM 39.3233 -88.5706 253° West 372 428 34,000 240 Climbing Kansas City Center
12:39PM 39.2958 -88.6931 254° West 370 426 33,900 -60 Descending Kansas City Center
12:40PM 39.2658 -88.8175 253° West 368 423 33,900  Level Kansas City Center
12:41PM 39.2361 -88.9425 253° West 367 422 33,900  Level Kansas City Center
12:42PM 39.2083 -89.0661 254° West 362 417 33,900  Level Kansas City Center
12:43PM 39.1792 -89.1881 253° West 359 413 34,000  Climbing Kansas City Center
12:44PM 39.1425 -89.3389 253° West 360 414 34,000  Level Kansas City Center
12:45PM 39.1122 -89.4656 253° West 368 423 34,000  Level Kansas City Center
12:46PM 39.0808 -89.5922 252° West 372 428 34,000  Level Kansas City Center
12:47PM 39.0478 -89.7300 253° West 376 433 34,000  Level Kansas City Center
12:48PM 39.0167 -89.8578 253° West 376 433 34,000  Level Kansas City Center
12:50PM 38.9847 -89.9856 252° West 377 434 34,000 -60 Level Kansas City Center
12:51PM 38.9575 -90.0986 253° West 375 432 33,900 -60 Descending Kansas City Center
12:52PM 38.9228 -90.2408 253° West 373 429 33,900  Level Kansas City Center
12:53PM 38.8922 -90.3697 253° West 374 430 33,900  Level Kansas City Center
12:54PM 38.8581 -90.4997 251° West 380 437 33,900  Level Kansas City Center
12:56PM 38.8231 -90.7739 261° West 385 443 33,900  Level Kansas City Center
12:57PM 38.8017 -90.9367 260° West 390 449 33,900  Level Kansas City Center
12:58PM 38.7833 -91.0725 260° West 389 448 33,900  Level Kansas City Center
12:59PM 38.7650 -91.2081 260° West 388 447 33,900  Level Kansas City Center
01:00PM 38.7469 -91.3419 260° West 386 444 33,900  Level Kansas City Center
01:01PM 38.7286 -91.4769 260° West 386 444 33,900  Level Kansas City Center
01:02PM 38.7117 -91.6142 261° West 384 442 33,900  Level Kansas City Center
01:03PM 38.6931 -91.7481 260° West 382 440 33,900  Level Kansas City Center
01:04PM 38.6742 -91.8808 260° West 382 440 33,900  Level Kansas City Center
01:05PM 38.6503 -92.0403 259° West 381 438 33,900  Level Kansas City Center
01:06PM 38.6303 -92.1719 259° West 379 436 33,900  Level Kansas City Center
01:07PM 38.6128 -92.3039 260° West 378 435 33,900  Level Kansas City Center
01:08PM 38.5925 -92.4350 259° West 377 434 33,900  Level Kansas City Center
01:09PM 38.5731 -92.5661 259° West 376 433 33,900  Level Kansas City Center
01:10PM 38.5533 -92.6992 259° West 379 436 33,900  Level Kansas City Center
01:11PM 38.5331 -92.8325 259° West 382 440 33,900  Level Kansas City Center
01:12PM 38.5089 -92.9925 259° West 382 440 33,900  Level Kansas City Center
01:13PM 38.4883 -93.1269 259° West 385 443 33,900  Level Kansas City Center
01:14PM 38.4669 -93.2614 259° West 387 445 34,000  Climbing Kansas City Center
01:15PM 38.4464 -93.3956 259° West 386 444 33,900 -60 Descending Kansas City Center
01:16PM 38.4261 -93.5300 259° West 386 444 33,900  Level Kansas City Center
01:17PM 38.4044 -93.6664 259° West 390 449 33,900  Level Kansas City Center
01:18PM 38.3842 -93.8022 259° West 391 450 34,000  Climbing Kansas City Center
01:19PM 38.3564 -93.9711 258° West 401 461 33,900 -60 Descending Kansas City Center
01:20PM 38.3372 -94.1025 260° West 404 465 33,900  Level Kansas City Center
01:21PM 38.3133 -94.2403 258° West 409 471 33,900  Level Kansas City Center
01:22PM 38.2878 -94.3997 259° West 412 474 33,900  Level Kansas City Center
01:23PM 38.2642 -94.5378 258° West 413 475 33,900  Level Kansas City Center
01:24PM 38.2400 -94.6964 259° West 412 474 33,900  Level Kansas City Center
01:26PM 38.2181 -94.8339 259° West 412 474 33,900  Level Kansas City Center
01:27PM 38.1917 -94.9947 258° West 413 475 33,900  Level Kansas City Center
01:28PM 38.1700 -95.1342 259° West 417 480 33,900  Level Kansas City Center
01:29PM 38.1469 -95.2722 258° West 418 481 33,900  Level Kansas City Center
01:30PM 38.1197 -95.4317 258° West 413 475 33,900  Level Kansas City Center
01:31PM 38.0961 -95.5681 258° West 413 475 33,900  Level Kansas City Center
01:32PM 38.0678 -95.7272 257° West 412 474 33,900  Level Kansas City Center
01:33PM 38.0447 -95.8647 258° West 414 476 33,900  Level Kansas City Center
01:34PM 38.0183 -96.0225 258° West 412 474 33,900  Level Kansas City Center
01:35PM 37.9947 -96.1619 258° West 413 475 33,900  Level Kansas City Center
01:36PM 37.9711 -96.3042 258° West 412 474 33,900  Level Kansas City Center
01:37PM 37.9478 -96.4461 258° West 412 474 33,900  Level Kansas City Center
01:38PM 37.9236 -96.5881 258° West 412 474 33,900 120 Level Kansas City Center
01:39PM 37.8997 -96.7294 258° West 412 474 34,200 540 Climbing Kansas City Center
01:40PM 37.8700 -96.9031 258° West 419 482 35,100 840 Climbing Kansas City Center
01:41PM 37.8431 -97.0483 257° West 422 486 36,000 360 Climbing Kansas City Center
01:42PM 37.8172 -97.1939 257° West 424 488 35,900 -60 Descending Kansas City Center
01:43PM 37.7911 -97.3392 257° West 423 487 35,900  Level Kansas City Center
01:44PM 37.7622 -97.4894 256° West 417 480 35,900  Level Kansas City Center
01:45PM 37.7364 -97.6314 257° West 416 479 35,900  Level Kansas City Center
01:46PM 37.7092 -97.7728 256° West 414 476 35,900  Level Kansas City Center
01:47PM 37.6819 -97.9139 256° West 414 476 35,900  Level Kansas City Center
01:48PM 37.6544 -98.0547 256° West 413 475 35,900  Level Kansas City Center
01:49PM 37.6278 -98.1961 257° West 416 479 35,900  Level Kansas City Center
01:50PM 37.5922 -98.3686 255° West 420 483 35,900  Level Kansas City Center
01:51PM 37.5639 -98.5119 256° West 421 484 35,900  Level Kansas City Center
01:52PM 37.5350 -98.6547 256° West 421 484 35,900  Level Kansas City Center
01:53PM 37.5058 -98.7989 256° West 422 486 35,900  Level Kansas City Center
01:54PM 37.4772 -98.9422 256° West 422 486 35,900  Level Kansas City Center
01:55PM 37.4478 -99.0861 256° West 424 488 35,900  Level Kansas City Center
01:56PM 37.4181 -99.2317 256° West 427 491 35,900  Level Kansas City Center
01:57PM 37.3817 -99.4058 255° West 429 494 35,900  Level Kansas City Center
01:59PM 37.3497 -99.5553 255° West 426 490 35,900  Level Kansas City Center
02:00PM 37.3208 -99.6944 255° West 428 493 35,900  Level Kansas City Center
02:01PM 37.2878 -99.8550 256° West 426 490 35,900  Level Kansas City Center
02:02PM 37.2567 -99.9958 255° West 432 497 35,900  Level Kansas City Center
02:03PM 37.2228 -100.1561 255° West 428 493 35,900  Level Kansas City Center
02:04PM 37.1931 -100.2956 255° West 430 495 35,900  Level Kansas City Center
02:05PM 37.1628 -100.4347 255° West 430 495 35,900  Level Kansas City Center
02:06PM 37.1267 -100.5983 255° West 433 498 35,900  Level Kansas City Center
02:07PM 37.0956 -100.7381 254° West 434 499 35,900  Level Kansas City Center
02:08PM 37.0592 -100.9014 254° West 434 499 35,900  Level Kansas City Center
02:09PM 37.0225 -101.0406 252° West 437 503 35,900  Level Kansas City Center
02:10PM 36.9714 -101.2006 248° West 441 507 35,900  Level Kansas City Center
02:11PM 36.9300 -101.3364 249° West 439 505 35,900 60 Level Kansas City Center
02:11PM 36.9086 -101.4056 249° West 440 506 36,000  Climbing Albuquerque Center
02:12PM 36.8581 -101.5650 248° West 441 507 35,900 -60 Descending Albuquerque Center
02:13PM 36.8144 -101.7014 248° West 442 509 35,900  Level Albuquerque Center
02:14PM 36.7714 -101.8356 248° West 437 503 35,900  Level Albuquerque Center
02:16PM 36.7211 -101.9933 248° West 438 504 35,900  Level Albuquerque Center
02:17PM 36.6783 -102.1278 248° West 437 503 35,900  Level Albuquerque Center
02:18PM 36.6278 -102.2858 248° West 438 504 35,900  Level Albuquerque Center
02:19PM 36.5822 -102.4253 248° West 438 504 35,900  Level Albuquerque Center
02:20PM 36.5356 -102.5653 248° West 439 505 35,900  Level Albuquerque Center
02:21PM 36.4897 -102.7053 248° West 440 506 35,900  Level Albuquerque Center
02:22PM 36.4444 -102.8439 248° West 437 503 35,900  Level Albuquerque Center
02:23PM 36.3936 -103.0033 248° West 436 502 35,900  Level Albuquerque Center
02:24PM 36.3458 -103.1386 246° West 428 493 35,900  Level Albuquerque Center
02:25PM 36.3022 -103.2764 249° West 427 491 35,900  Level Albuquerque Center
02:26PM 36.2567 -103.4128 248° West 425 489 36,000  Climbing Albuquerque Center
02:27PM 36.2103 -103.5494 247° West 428 493 36,000 -60 Level Albuquerque Center
02:28PM 36.1636 -103.6867 247° West 428 493 35,900 -60 Descending Albuquerque Center
02:29PM 36.1169 -103.8194 247° West 422 486 35,900  Level Albuquerque Center
02:30PM 36.0697 -103.9544 247° West 424 488 35,900  Level Albuquerque Center
02:31PM 36.0164 -104.1117 247° West 424 488 35,900  Level Albuquerque Center
02:32PM 35.9700 -104.2453 247° West 422 486 35,900  Level Albuquerque Center
02:33PM 35.9242 -104.3792 247° West 422 486 35,900  Level Albuquerque Center
02:34PM 35.8767 -104.5125 246° West 423 487 36,000  Climbing Albuquerque Center
02:35PM 35.8472 -104.6539 256° West 422 486 36,000 -60 Level Albuquerque Center
02:36PM 35.8200 -104.7939 257° West 419 482 35,900 -60 Descending Albuquerque Center
02:37PM 35.7914 -104.9361 256° West 423 487 35,900  Level Albuquerque Center
02:38PM 35.7636 -105.0792 257° West 426 490 36,000  Climbing Albuquerque Center
02:39PM 35.7297 -105.2461 256° West 429 494 35,900 -60 Descending Albuquerque Center
02:40PM 35.7022 -105.3881 257° West 426 490 35,900  Level Albuquerque Center
02:41PM 35.6717 -105.5314 255° West 429 494 35,900  Level Albuquerque Center
02:42PM 35.6453 -105.6647 256° West 428 493 35,900  Level Albuquerque Center
02:43PM 35.6136 -105.8175 256° West 430 495 36,000  Climbing Albuquerque Center
02:44PM 35.5869 -105.9483 256° West 429 494 35,900 -60 Descending Albuquerque Center
02:45PM 35.5581 -106.0897 256° West 429 494 35,900  Level Albuquerque Center
02:46PM 35.5231 -106.2614 256° West 432 497 35,900  Level Albuquerque Center
02:47PM 35.4939 -106.4031 256° West 431 496 35,900  Level Albuquerque Center
02:48PM 35.4639 -106.5433 255° West 429 494 35,900  Level Albuquerque Center
02:49PM 35.4347 -106.6842 256° West 429 494 35,900  Level Albuquerque Center
02:50PM 35.4042 -106.8239 255° West 429 494 35,900  Level Albuquerque Center
02:51PM 35.3694 -106.9803 255° West 427 491 36,000  Climbing Albuquerque Center
02:52PM 35.3406 -107.1144 255° West 426 490 35,900 -60 Descending Albuquerque Center
02:54PM 35.3069 -107.2706 255° West 432 497 35,900  Level Albuquerque Center
02:55PM 35.2758 -107.4106 255° West 430 495 35,900  Level Albuquerque Center
02:56PM 35.2419 -107.5658 255° West 428 493 35,900  Level Albuquerque Center
02:57PM 35.2122 -107.7003 255° West 427 491 35,900  Level Albuquerque Center
02:58PM 35.1769 -107.8556 255° West 425 489 35,900  Level Albuquerque Center
02:59PM 35.1475 -107.9897 255° West 425 489 35,900  Level Albuquerque Center
03:00PM 35.1175 -108.1228 255° West 424 488 35,900  Level Albuquerque Center
03:01PM 35.0819 -108.2789 254° West 424 488 35,900  Level Albuquerque Center
03:02PM 35.0511 -108.4128 254° West 426 490 35,900  Level Albuquerque Center
03:03PM 35.0153 -108.5681 254° West 425 489 35,900  Level Albuquerque Center
03:04PM 34.9844 -108.7031 254° West 428 493 35,900  Level Albuquerque Center
03:05PM 34.9528 -108.8372 254° West 429 494 36,000  Climbing Albuquerque Center
03:06PM 34.9175 -108.9917 254° West 425 489 35,900  Descending Albuquerque Center
03:07PM 34.8844 -109.1253 253° West 428 493 36,000  Climbing Albuquerque Center
03:08PM 34.8481 -109.2839 254° West 432 497 35,900 -60 Descending Albuquerque Center
03:09PM 34.8158 -109.4178 254° West 431 496 35,900  Level Albuquerque Center
03:10PM 34.7833 -109.5478 253° West 423 487 35,900  Level Albuquerque Center
03:11PM 34.7453 -109.7019 253° West 423 487 35,900  Level Albuquerque Center
03:12PM 34.7136 -109.8356 254° West 427 491 35,900  Level Albuquerque Center
03:13PM 34.6608 -109.9833 247° West 427 491 35,900  Level Albuquerque Center
03:14PM 34.6133 -110.1089 245° Southwest 426 490 35,900 -660 Level Albuquerque Center
03:15PM 34.5619 -110.2622 248° West 434 499 34,600 -1,920 Descending Albuquerque Center
03:16PM 34.5119 -110.3825 243° Southwest 422 486 32,000 -2,400 Descending Albuquerque Center
03:17PM 34.4664 -110.5156 247° West 461 531 29,800 -2,220 Descending Albuquerque Center
03:18PM 34.4139 -110.6492 245° Southwest 446 513 27,500 -2,400 Descending Albuquerque Center
03:19PM 34.3481 -110.8022 243° Southwest 433 498 24,900 -2,400 Descending Albuquerque Center
03:20PM 34.2708 -110.9047 228° Southwest 415 478 22,700 -2,100 Descending Albuquerque Center
03:21PM 34.1950 -111.0006 226° Southwest 401 461 20,600 -2,040 Descending Albuquerque Center
03:22PM 34.1228 -111.0956 227° Southwest 390 449 18,600 -1,860 Descending Albuquerque Center
03:23PM 34.0536 -111.1847 227° Southwest 373 429 16,800 -1,860 Descending Albuquerque Center
03:24PM 33.9858 -111.2711 227° Southwest 363 418 14,800 -1,980 Descending Albuquerque Center
03:25PM 33.9194 -111.3564 227° Southwest 350 403 12,800 -1,620 Descending Albuquerque Center
03:26PM 33.8544 -111.4292 223° Southwest 318 366 11,600 -1,080 Descending Albuquerque Center
03:27PM 33.7731 -111.4978 215° Southwest 296 341 10,600 -1,080 Descending Albuquerque Center
03:28PM 33.7067 -111.5569 217° Southwest 295 339 9,500 -1,020 Descending Albuquerque Center
03:29PM 33.6408 -111.6114 215° Southwest 286 329 8,600 -840 Descending Albuquerque Center
03:31PM 33.5844 -111.6583 215° Southwest 250 288 7,800 -900 Descending Albuquerque Center
03:32PM 33.5267 -111.6761 194° South 217 250 6,800 -1,140 Descending Albuquerque Center
03:33PM 33.4811 -111.7142 215° Southwest 213 245 5,500 -1,200 Descending Albuquerque Center
03:34PM 33.4544 -111.7697 240° Southwest 193 222 4,400 -840 Descending Albuquerque Center
03:35PM 33.4408 -111.8267 254° West 181 208 3,800 -840 Descending Albuquerque Center
03:36PM 33.4406 -111.8872 270° West 181 208 2,800 -900 Descending Albuquerque Center
03:37PM 33.4408 -111.9436 270° West 145 167 2,000 -780 Descending Albuquerque Center
03:38PM 33.4403 -111.9881 269° West 142 163 1,300 -720 Descending Albuquerque Center
03:40PM 33.4343 -112.0116 270° West  Level Estimated